Time;durP1;ratioP1;P1;durP2;ratioP2;P2;SDS_P1;SDS_P2;PMS_P1;PMS_P2;Temp;Humidity;BMP_temperature;BMP_pressure;BME280_temperature;BME280_humidity;BME280_pressure;Samples;Min_cycle;Max_cycle;Signal;HPM_P1;HPM_P2
2021/12/02 00:01:06;;;;;;;8.90;2.10;;;7.00;99.90;;;;;;5038746;28;20489;-46
2021/12/02 00:03:35;;;;;;;3.70;2.37;;;7.00;99.90;;;;;;5051263;28;20563;-47
2021/12/02 00:06:02;;;;;;;5.60;2.80;;;7.00;99.90;;;;;;5053573;28;20480;-46
2021/12/02 00:08:29;;;;;;;3.90;2.47;;;7.00;99.90;;;;;;5042940;28;20488;-46
2021/12/02 00:10:55;;;;;;;6.00;2.50;;;7.00;99.90;;;;;;5050107;28;20476;-46
2021/12/02 00:13:25;;;;;;;8.53;2.40;;;7.00;99.90;;;;;;5032331;28;20494;-45
2021/12/02 00:15:56;;;;;;;8.37;2.90;;;7.00;99.90;;;;;;5035317;28;21241;-46
2021/12/02 00:21:26;;;;;;;2.97;1.97;;;7.00;99.90;;;;;;5049684;28;20538;-46
2021/12/02 00:24:01;;;;;;;5.13;2.37;;;7.00;99.90;;;;;;5055252;28;21056;-46
2021/12/02 00:26:29;;;;;;;2.97;1.80;;;7.00;99.90;;;;;;5051622;28;20506;-46
2021/12/02 00:28:58;;;;;;;2.27;2.00;;;7.00;99.90;;;;;;5048009;28;20484;-45
2021/12/02 00:31:28;;;;;;;8.50;3.00;;;7.00;99.90;;;;;;5054371;28;20851;-46
2021/12/02 00:33:59;;;;;;;4.60;2.73;;;7.10;99.90;;;;;;5058354;28;21227;-46
2021/12/02 00:36:28;;;;;;;3.03;2.30;;;7.10;99.90;;;;;;5060316;28;20520;-47
2021/12/02 00:38:56;;;;;;;7.50;2.90;;;7.10;99.90;;;;;;5060215;28;20491;-47
2021/12/02 00:41:25;;;;;;;2.27;2.07;;;7.10;99.90;;;;;;5052763;28;20473;-46
2021/12/02 00:43:53;;;;;;;4.87;3.33;;;7.10;99.90;;;;;;5060542;28;21011;-46
2021/12/02 00:46:22;;;;;;;5.93;2.77;;;7.10;99.90;;;;;;5057404;28;20471;-47
2021/12/02 00:48:49;;;;;;;7.97;2.37;;;7.10;99.90;;;;;;5059136;28;20494;-47
2021/12/02 00:51:19;;;;;;;4.43;3.00;;;7.00;99.90;;;;;;5031235;28;20485;-47
2021/12/02 00:53:52;;;;;;;12.00;3.40;;;7.00;99.90;;;;;;5056906;28;20482;-47
2021/12/02 00:56:23;;;;;;;3.17;2.43;;;7.00;99.90;;;;;;5033527;28;20467;-46
2021/12/02 00:58:51;;;;;;;7.97;3.30;;;7.00;99.90;;;;;;5048151;28;20472;-46
2021/12/02 01:01:20;;;;;;;5.47;3.23;;;7.00;99.90;;;;;;5057399;28;20540;-46
2021/12/02 01:03:49;;;;;;;6.23;2.90;;;7.00;99.90;;;;;;5059752;28;20951;-46
2021/12/02 01:06:18;;;;;;;4.60;2.47;;;7.00;99.90;;;;;;5059831;28;20490;-45
2021/12/02 01:08:45;;;;;;;4.07;2.80;;;7.00;99.90;;;;;;5051729;28;20494;-46
2021/12/02 01:11:13;;;;;;;2.70;1.90;;;7.00;99.90;;;;;;5040968;28;20482;-47
2021/12/02 01:13:40;;;;;;;5.80;3.40;;;7.10;99.90;;;;;;5063538;28;21089;-47
2021/12/02 01:16:07;;;;;;;9.67;2.90;;;7.00;99.90;;;;;;5055906;28;20555;-47
2021/12/02 01:18:34;;;;;;;6.23;2.83;;;7.10;99.90;;;;;;5064003;28;21202;-47
2021/12/02 01:21:03;;;;;;;6.70;3.10;;;7.10;99.90;;;;;;5059199;28;20475;-46
2021/12/02 01:23:33;;;;;;;7.83;2.80;;;7.20;99.90;;;;;;5055719;28;20835;-46
2021/12/02 01:26:02;;;;;;;11.50;3.67;;;7.10;99.90;;;;;;5058908;28;20530;-47
2021/12/02 01:28:29;;;;;;;6.00;3.33;;;7.20;99.90;;;;;;5070822;28;20490;-46
2021/12/02 01:30:57;;;;;;;4.50;3.07;;;7.20;99.90;;;;;;5054528;28;21176;-48
2021/12/02 01:33:27;;;;;;;10.70;3.57;;;7.20;99.90;;;;;;5062309;28;20561;-47
2021/12/02 01:35:57;;;;;;;5.87;3.70;;;7.20;99.90;;;;;;5056030;28;20483;-47
2021/12/02 01:38:25;;;;;;;6.37;4.43;;;7.10;99.90;;;;;;5060563;28;20507;-47
2021/12/02 01:40:54;;;;;;;8.60;4.00;;;7.00;99.90;;;;;;5057863;28;20522;-51
2021/12/02 01:43:22;;;;;;;9.97;4.00;;;7.00;99.90;;;;;;5061753;28;20476;-47
2021/12/02 01:45:49;;;;;;;8.20;3.40;;;7.00;99.90;;;;;;5062391;28;20622;-48
2021/12/02 01:48:23;;;;;;;10.97;4.80;;;7.00;99.90;;;;;;5054951;28;21385;-47
2021/12/02 01:51:01;;;;;;;11.87;3.70;;;6.90;99.90;;;;;;5053444;28;20480;-46
2021/12/02 01:53:32;;;;;;;8.77;3.23;;;6.90;99.90;;;;;;5045209;28;20472;-47
2021/12/02 01:56:10;;;;;;;6.33;3.93;;;6.90;99.90;;;;;;5053348;28;20474;-47
2021/12/02 01:58:43;;;;;;;8.23;3.97;;;7.00;99.90;;;;;;5062663;28;20578;-46
2021/12/02 02:01:15;;;;;;;10.43;4.20;;;7.00;99.90;;;;;;5047053;28;20491;-47
2021/12/02 02:03:43;;;;;;;4.30;3.10;;;7.10;99.90;;;;;;5059318;28;20487;-46
2021/12/02 02:06:11;;;;;;;11.27;4.37;;;7.00;99.90;;;;;;5031398;28;20493;-48
2021/12/02 02:08:44;;;;;;;5.73;3.83;;;7.00;99.90;;;;;;5029426;28;20487;-46
2021/12/02 02:11:13;;;;;;;10.07;2.90;;;7.10;99.90;;;;;;5026858;28;20559;-46
2021/12/02 02:13:42;;;;;;;6.90;3.50;;;7.00;99.90;;;;;;5040303;28;20516;-46
2021/12/02 02:16:08;;;;;;;7.57;3.67;;;7.00;99.90;;;;;;5037275;28;20503;-46
2021/12/02 02:18:39;;;;;;;11.77;4.97;;;7.10;99.90;;;;;;5038971;28;20479;-47
2021/12/02 02:21:09;;;;;;;6.00;3.87;;;7.10;99.90;;;;;;5043767;28;20486;-47
2021/12/02 02:23:38;;;;;;;6.10;4.40;;;7.00;99.90;;;;;;5002456;28;20476;-46
2021/12/02 02:26:06;;;;;;;6.90;3.03;;;7.10;99.90;;;;;;5057241;28;20506;-46
2021/12/02 02:28:33;;;;;;;7.57;4.27;;;7.10;99.90;;;;;;5059296;28;20483;-47
2021/12/02 02:31:00;;;;;;;13.77;3.80;;;7.10;99.90;;;;;;5059863;28;20535;-47
2021/12/02 02:33:34;;;;;;;8.87;3.87;;;7.10;99.90;;;;;;5050467;28;21006;-46
2021/12/02 02:36:01;;;;;;;4.57;2.20;;;7.10;99.90;;;;;;5045817;28;21145;-46
2021/12/02 02:38:29;;;;;;;2.97;2.50;;;7.10;99.90;;;;;;5049014;28;20486;-46
2021/12/02 02:40:58;;;;;;;14.47;3.10;;;7.00;99.90;;;;;;5062167;28;20496;-46
2021/12/02 02:43:26;;;;;;;2.23;1.43;;;7.10;99.90;;;;;;5050049;28;20876;-46
2021/12/02 02:45:53;;;;;;;5.27;2.50;;;7.00;99.90;;;;;;5057934;28;20931;-46
2021/12/02 02:48:20;;;;;;;4.00;2.03;;;7.00;99.90;;;;;;5058949;28;20480;-47
2021/12/02 02:50:47;;;;;;;3.20;2.00;;;7.00;99.90;;;;;;5062609;28;20494;-56
2021/12/02 02:53:16;;;;;;;15.73;3.30;;;7.10;99.90;;;;;;5060324;28;20491;-46
2021/12/02 02:55:51;;;;;;;7.63;3.90;;;7.10;99.90;;;;;;5038551;28;20472;-47
2021/12/02 02:58:26;;;;;;;3.67;2.47;;;7.10;99.90;;;;;;5035128;28;20877;-47
2021/12/02 03:01:01;;;;;;;8.30;2.43;;;7.10;99.90;;;;;;5046203;28;20470;-47
2021/12/02 03:03:35;;;;;;;2.40;2.13;;;7.00;99.90;;;;;;5053162;28;20996;-46
2021/12/02 03:06:19;;;;;;;4.37;3.37;;;7.00;99.90;;;;;;5046640;28;20481;-46
2021/12/02 03:08:50;;;;;;;5.03;2.83;;;7.00;99.90;;;;;;5063572;28;20487;-46
2021/12/02 03:11:21;;;;;;;16.30;5.07;;;7.00;99.90;;;;;;5048496;28;20474;-46
2021/12/02 03:13:51;;;;;;;10.10;4.90;;;7.00;99.90;;;;;;5070050;28;20556;-47
2021/12/02 03:19:03;;;;;;;5.07;3.97;;;7.00;99.90;;;;;;5054053;28;20480;-46
2021/12/02 03:21:30;;;;;;;6.17;4.37;;;7.10;99.90;;;;;;5062505;28;20486;-46
2021/12/02 03:23:59;;;;;;;9.70;4.63;;;7.10;99.90;;;;;;5034917;28;20482;-47
2021/12/02 03:26:28;;;;;;;9.87;3.77;;;7.10;99.90;;;;;;5041079;28;20490;-47
2021/12/02 03:28:56;;;;;;;7.80;3.63;;;7.10;99.90;;;;;;5060116;28;20502;-46
2021/12/02 03:31:23;;;;;;;16.53;7.53;;;7.10;99.90;;;;;;5055934;28;21386;-47
2021/12/02 03:33:50;;;;;;;8.13;4.47;;;7.00;99.90;;;;;;5032984;28;21062;-45
2021/12/02 03:36:18;;;;;;;9.33;4.90;;;7.10;99.90;;;;;;5056823;28;20497;-46
2021/12/02 03:38:46;;;;;;;8.77;4.20;;;7.10;99.90;;;;;;5057007;28;20978;-46
2021/12/02 03:41:14;;;;;;;9.27;4.53;;;7.10;99.90;;;;;;5058580;28;20479;-46
2021/12/02 03:43:44;;;;;;;6.90;3.97;;;7.10;99.90;;;;;;5060578;28;20474;-46
2021/12/02 03:46:13;;;;;;;17.10;4.80;;;7.10;99.90;;;;;;5058339;28;20489;-46
2021/12/02 03:48:41;;;;;;;6.60;4.13;;;7.10;99.90;;;;;;5063921;28;20489;-46
2021/12/02 03:51:10;;;;;;;8.60;4.47;;;7.10;99.90;;;;;;5055881;28;20480;-46
2021/12/02 03:53:37;;;;;;;14.37;4.93;;;7.10;99.90;;;;;;5049339;28;20480;-46
2021/12/02 03:56:06;;;;;;;14.60;3.87;;;7.10;99.90;;;;;;5063603;28;20492;-46
2021/12/02 03:58:34;;;;;;;7.10;4.83;;;7.10;99.90;;;;;;5061433;28;20494;-47
2021/12/02 04:01:02;;;;;;;11.43;4.83;;;7.10;99.90;;;;;;5063305;28;20487;-46
2021/12/02 04:03:29;;;;;;;10.20;4.90;;;7.10;99.90;;;;;;5060407;28;20903;-47
2021/12/02 04:05:55;;;;;;;11.00;5.63;;;7.10;99.90;;;;;;5056225;28;20488;-47
2021/12/02 04:08:29;;;;;;;14.93;5.43;;;7.10;99.90;;;;;;5054963;28;20483;-47
2021/12/02 04:11:00;;;;;;;6.60;4.83;;;7.10;99.90;;;;;;5045675;28;20478;-46
2021/12/02 04:13:30;;;;;;;7.43;5.13;;;7.00;99.90;;;;;;5042542;28;20498;-47
2021/12/02 04:16:02;;;;;;;8.70;4.20;;;7.00;99.90;;;;;;5056601;28;20496;-46
2021/12/02 04:18:30;;;;;;;7.50;5.60;;;7.00;99.90;;;;;;5062567;28;20513;-46
2021/12/02 04:20:57;;;;;;;11.67;4.70;;;6.90;99.90;;;;;;5061767;28;21055;-47
2021/12/02 04:23:24;;;;;;;11.77;4.87;;;7.00;99.90;;;;;;5044416;28;20481;-47
2021/12/02 04:25:50;;;;;;;8.47;4.33;;;7.00;99.90;;;;;;5040228;28;20490;-46
2021/12/02 04:28:17;;;;;;;12.40;4.50;;;6.90;99.90;;;;;;5029150;28;20498;-47
2021/12/02 04:30:44;;;;;;;6.30;3.87;;;6.90;99.90;;;;;;5037828;28;20880;-46
2021/12/02 04:33:10;;;;;;;9.30;4.50;;;6.90;99.90;;;;;;5042887;28;20487;-46
2021/12/02 04:35:39;;;;;;;9.50;5.17;;;6.90;99.90;;;;;;5059841;28;21199;-46
2021/12/02 04:38:06;;;;;;;12.43;5.77;;;6.90;99.90;;;;;;5059928;28;20486;-47
2021/12/02 04:40:35;;;;;;;6.90;4.27;;;6.90;99.90;;;;;;5060338;28;21005;-46
2021/12/02 04:43:02;;;;;;;9.90;4.00;;;6.80;99.90;;;;;;5061274;28;20974;-46
2021/12/02 04:45:29;;;;;;;7.50;3.90;;;6.80;99.90;;;;;;5072334;28;20486;-46
2021/12/02 04:47:56;;;;;;;6.80;4.30;;;6.70;99.90;;;;;;5065964;28;20966;-46
2021/12/02 04:50:22;;;;;;;10.10;4.00;;;6.80;99.90;;;;;;5060449;28;20489;-46
2021/12/02 04:52:52;;;;;;;12.87;4.23;;;6.80;99.90;;;;;;5055497;28;20500;-47
2021/12/02 04:55:20;;;;;;;4.73;3.63;;;6.80;99.90;;;;;;5071409;28;20489;-46
2021/12/02 04:57:47;;;;;;;4.53;2.63;;;6.80;99.90;;;;;;5061702;28;20490;-46
2021/12/02 05:00:15;;;;;;;7.80;3.30;;;6.80;99.90;;;;;;5056527;28;20492;-47
2021/12/02 05:02:42;;;;;;;7.40;1.60;;;6.80;99.90;;;;;;5059307;28;20485;-46
2021/12/02 05:05:10;;;;;;;9.83;4.50;;;6.80;99.90;;;;;;5065979;28;20502;-46
2021/12/02 05:07:37;;;;;;;10.97;3.80;;;6.80;99.90;;;;;;5034311;28;20477;-46
2021/12/02 05:10:07;;;;;;;6.77;4.47;;;6.80;99.90;;;;;;5059953;28;20557;-47
2021/12/02 05:12:34;;;;;;;11.83;3.63;;;6.80;99.90;;;;;;5048359;28;20580;-46
2021/12/02 05:15:01;;;;;;;7.20;2.83;;;6.80;99.90;;;;;;5070233;28;20567;-46
2021/12/02 05:17:28;;;;;;;6.27;4.23;;;6.80;99.90;;;;;;5054302;28;20485;-47
2021/12/02 05:19:55;;;;;;;10.03;5.27;;;6.80;99.90;;;;;;5060443;28;20853;-46
2021/12/02 05:22:22;;;;;;;8.03;4.53;;;6.80;99.90;;;;;;5057226;28;20478;-46
2021/12/02 05:24:49;;;;;;;14.43;5.07;;;6.90;99.90;;;;;;5062645;28;20549;-46
2021/12/02 05:27:17;;;;;;;9.17;4.43;;;6.80;99.90;;;;;;5034795;28;20503;-46
2021/12/02 05:29:43;;;;;;;6.97;4.33;;;6.90;99.90;;;;;;5059193;28;20489;-46
2021/12/02 05:32:10;;;;;;;4.97;4.00;;;6.90;99.90;;;;;;5058430;28;20491;-47
2021/12/02 05:34:37;;;;;;;9.40;4.43;;;6.90;99.90;;;;;;5058281;28;20489;-46
2021/12/02 05:37:04;;;;;;;10.50;4.00;;;6.90;99.90;;;;;;5062226;28;20496;-46
2021/12/02 05:39:31;;;;;;;10.07;5.07;;;6.90;99.90;;;;;;5043764;28;20488;-47
2021/12/02 05:41:58;;;;;;;11.23;3.77;;;6.90;99.90;;;;;;5066137;28;20496;-46
2021/12/02 05:44:27;;;;;;;9.77;5.20;;;6.90;99.90;;;;;;5057965;28;20478;-47
2021/12/02 05:46:54;;;;;;;8.80;3.27;;;6.80;99.90;;;;;;5032666;28;20474;-47
2021/12/02 05:49:21;;;;;;;5.43;2.23;;;6.80;99.90;;;;;;5051190;28;20488;-47
2021/12/02 05:51:48;;;;;;;5.70;3.37;;;6.80;99.90;;;;;;5056151;28;20487;-46
2021/12/02 05:54:15;;;;;;;4.80;3.23;;;6.70;99.90;;;;;;5058076;28;20486;-47
2021/12/02 05:56:42;;;;;;;6.87;4.50;;;6.70;99.90;;;;;;5053679;28;20494;-47
2021/12/02 05:59:09;;;;;;;4.13;3.73;;;6.70;99.90;;;;;;5054609;28;20540;-47
2021/12/02 06:01:42;;;;;;;10.50;5.20;;;6.60;99.90;;;;;;5057218;28;20481;-47
2021/12/02 06:04:09;;;;;;;7.23;3.23;;;6.60;99.90;;;;;;5056687;28;20563;-47
2021/12/02 06:06:36;;;;;;;3.83;3.30;;;6.60;99.90;;;;;;5056712;28;20486;-48
2021/12/02 06:09:03;;;;;;;7.67;4.40;;;6.70;99.90;;;;;;5058084;28;20822;-46
2021/12/02 06:11:30;;;;;;;3.60;3.30;;;6.60;99.90;;;;;;5055153;28;20923;-45
2021/12/02 06:13:56;;;;;;;3.97;3.63;;;6.60;99.90;;;;;;5060122;28;20505;-46
2021/12/02 06:16:23;;;;;;;6.37;4.30;;;6.60;99.90;;;;;;5057020;28;20493;-46
2021/12/02 06:18:51;;;;;;;3.50;3.20;;;6.60;99.90;;;;;;5064513;28;20993;-46
2021/12/02 06:21:18;;;;;;;3.60;3.30;;;6.60;99.90;;;;;;5059262;28;20499;-46
2021/12/02 06:23:45;;;;;;;5.13;2.80;;;6.50;99.90;;;;;;5059020;28;20476;-46
2021/12/02 06:26:12;;;;;;;2.70;2.30;;;6.50;99.90;;;;;;5055734;28;20478;-46
2021/12/02 06:28:38;;;;;;;3.50;1.87;;;6.40;99.90;;;;;;5028317;28;20473;-46
2021/12/02 06:31:06;;;;;;;3.40;1.40;;;6.40;99.90;;;;;;5057070;28;20492;-46
2021/12/02 06:33:33;;;;;;;2.67;1.40;;;6.40;99.90;;;;;;5062894;28;20502;-46
2021/12/02 06:36:01;;;;;;;4.57;1.63;;;6.30;99.90;;;;;;5057008;28;20475;-46
2021/12/02 06:38:28;;;;;;;1.93;1.50;;;6.30;99.90;;;;;;5065654;28;20942;-46
2021/12/02 06:40:55;;;;;;;4.23;1.60;;;6.30;99.90;;;;;;5055400;28;20482;-46
2021/12/02 06:43:22;;;;;;;2.20;1.40;;;6.30;99.90;;;;;;5050467;28;20900;-46
2021/12/02 06:45:48;;;;;;;1.70;1.07;;;6.30;99.90;;;;;;5071106;28;20483;-46
2021/12/02 06:48:15;;;;;;;4.67;1.40;;;6.40;99.90;;;;;;5054639;28;20499;-46
2021/12/02 06:50:43;;;;;;;1.70;1.10;;;6.40;99.90;;;;;;5056666;28;20488;-46
2021/12/02 06:53:12;;;;;;;2.90;1.10;;;6.40;99.90;;;;;;5051868;28;20471;-46
2021/12/02 06:55:39;;;;;;;2.13;1.20;;;6.30;99.90;;;;;;5075437;28;20485;-46
2021/12/02 06:58:06;;;;;;;2.13;1.20;;;6.30;99.90;;;;;;5061984;28;20489;-46
2021/12/02 07:00:32;;;;;;;1.90;1.33;;;6.30;99.90;;;;;;5054756;28;20529;-46
2021/12/02 07:03:01;;;;;;;3.30;1.80;;;6.40;99.90;;;;;;5052394;28;20481;-47
2021/12/02 07:05:29;;;;;;;2.70;1.50;;;6.40;99.90;;;;;;5037834;28;20487;-46
2021/12/02 07:07:57;;;;;;;2.40;1.47;;;6.40;99.90;;;;;;5048000;28;20487;-46
2021/12/02 07:10:25;;;;;;;2.60;1.93;;;6.40;99.90;;;;;;5057351;28;20481;-46
2021/12/02 07:12:56;;;;;;;6.47;2.50;;;6.40;99.90;;;;;;5061238;28;20876;-46
2021/12/02 07:15:27;;;;;;;4.23;2.37;;;6.40;99.90;;;;;;5052229;28;20487;-46
2021/12/02 07:17:56;;;;;;;5.50;3.30;;;6.50;99.90;;;;;;5033818;28;20487;-46
2021/12/02 07:20:23;;;;;;;2.60;2.40;;;6.50;99.90;;;;;;5056520;28;20480;-51
2021/12/02 07:22:51;;;;;;;3.13;2.40;;;6.50;99.90;;;;;;5050549;28;20980;-46
2021/12/02 07:25:17;;;;;;;3.70;3.40;;;6.60;99.90;;;;;;5044840;28;20488;-46
2021/12/02 07:27:47;;;;;;;6.00;2.90;;;6.60;99.90;;;;;;5039009;28;20931;-46
2021/12/02 07:30:14;;;;;;;3.07;2.47;;;6.60;99.90;;;;;;5062442;28;20670;-46
2021/12/02 07:32:42;;;;;;;2.77;2.37;;;6.60;99.90;;;;;;5046034;28;20912;-46
2021/12/02 07:35:11;;;;;;;6.87;3.23;;;6.60;99.90;;;;;;5050912;28;20484;-46
2021/12/02 07:37:41;;;;;;;5.50;3.50;;;6.60;99.90;;;;;;5053293;28;20745;-46
2021/12/02 07:40:08;;;;;;;9.00;3.90;;;6.50;99.90;;;;;;5045701;28;20923;-46
2021/12/02 07:42:35;;;;;;;4.50;3.97;;;6.50;99.90;;;;;;5045099;28;20494;-46
2021/12/02 07:45:04;;;;;;;4.30;2.90;;;6.50;99.90;;;;;;5043131;28;20486;-46
2021/12/02 07:47:32;;;;;;;6.30;4.30;;;6.50;99.90;;;;;;5049161;28;20815;-46
2021/12/02 07:49:59;;;;;;;4.03;2.23;;;6.50;99.90;;;;;;5048821;28;20495;-46
2021/12/02 07:52:27;;;;;;;4.90;4.10;;;6.50;99.90;;;;;;5057205;28;20489;-46
2021/12/02 07:54:56;;;;;;;5.50;3.33;;;6.50;99.90;;;;;;5052851;28;20497;-46
2021/12/02 07:57:22;;;;;;;6.60;4.10;;;6.60;99.90;;;;;;5053028;28;20582;-47
2021/12/02 07:59:50;;;;;;;6.37;3.23;;;6.60;99.90;;;;;;5054417;28;20517;-46
2021/12/02 08:02:18;;;;;;;10.70;5.13;;;6.60;99.90;;;;;;5054385;28;20498;-47
2021/12/02 08:04:45;;;;;;;5.67;3.03;;;6.60;99.90;;;;;;5050580;28;20490;-46
2021/12/02 08:07:12;;;;;;;3.30;1.60;;;6.60;99.90;;;;;;5051263;28;20933;-46
2021/12/02 08:09:39;;;;;;;3.13;2.83;;;6.40;99.50;;;;;;5058097;28;20488;-46
2021/12/02 08:12:06;;;;;;;6.47;3.80;;;6.50;99.90;;;;;;5050106;28;20492;-46
2021/12/02 08:14:33;;;;;;;5.73;2.77;;;6.50;99.90;;;;;;5053931;28;20492;-47
2021/12/02 08:17:00;;;;;;;4.87;3.93;;;6.50;99.90;;;;;;5051443;28;20487;-46
2021/12/02 08:19:28;;;;;;;8.40;4.00;;;6.50;99.90;;;;;;5039787;28;20519;-46
2021/12/02 08:21:55;;;;;;;7.57;3.10;;;6.50;99.90;;;;;;5035678;28;20522;-46
2021/12/02 08:24:23;;;;;;;4.13;3.23;;;6.60;99.90;;;;;;5045345;28;20562;-46
2021/12/02 08:26:50;;;;;;;5.80;3.47;;;6.50;99.70;;;;;;5064631;28;20494;-46
2021/12/02 08:29:17;;;;;;;5.87;2.70;;;6.50;99.90;;;;;;5035408;28;20496;-46
2021/12/02 08:31:44;;;;;;;9.90;3.63;;;6.50;99.80;;;;;;5064288;28;20489;-46
2021/12/02 08:34:11;;;;;;;6.00;3.10;;;6.50;99.80;;;;;;5053394;28;20489;-47
2021/12/02 08:36:44;;;;;;;4.07;3.67;;;6.50;99.90;;;;;;5055505;28;20868;-46
2021/12/02 08:39:16;;;;;;;7.90;3.43;;;6.50;99.80;;;;;;5045412;28;20536;-47
2021/12/02 08:41:46;;;;;;;6.47;3.30;;;6.60;99.90;;;;;;5053522;28;20489;-47
2021/12/02 08:44:13;;;;;;;5.07;3.87;;;6.60;99.80;;;;;;5049446;28;20509;-46
2021/12/02 08:46:40;;;;;;;7.57;3.90;;;6.70;99.90;;;;;;5043097;28;20572;-46
2021/12/02 08:49:07;;;;;;;6.30;3.43;;;6.70;99.90;;;;;;5032652;28;20485;-48
2021/12/02 08:51:34;;;;;;;5.37;3.37;;;6.80;99.90;;;;;;5051878;28;20500;-46
2021/12/02 08:54:02;;;;;;;8.00;3.67;;;6.80;99.90;;;;;;5052997;28;20488;-46
2021/12/02 08:56:30;;;;;;;5.93;4.17;;;6.80;99.90;;;;;;5058068;28;20482;-46
2021/12/02 08:58:58;;;;;;;6.63;4.27;;;6.80;99.90;;;;;;5042945;28;20501;-46
2021/12/02 09:01:25;;;;;;;4.53;3.63;;;6.90;99.90;;;;;;5060295;28;20486;-46
2021/12/02 09:03:52;;;;;;;4.10;3.67;;;6.90;99.90;;;;;;5039653;28;20575;-46
2021/12/02 09:06:22;;;;;;;8.30;3.63;;;6.90;99.90;;;;;;5024706;28;20849;-45
2021/12/02 09:08:49;;;;;;;4.20;3.53;;;6.90;99.60;;;;;;5053812;28;20483;-46
2021/12/02 09:11:17;;;;;;;15.07;3.60;;;6.90;99.50;;;;;;5046154;28;20986;-46
2021/12/02 09:13:44;;;;;;;4.00;2.80;;;6.80;98.90;;;;;;5053146;28;21000;-46
2021/12/02 09:16:11;;;;;;;7.50;4.00;;;6.80;99.50;;;;;;5032679;28;20493;-46
2021/12/02 09:18:38;;;;;;;5.93;5.00;;;6.80;99.30;;;;;;5048898;28;21355;-46
2021/12/02 09:21:05;;;;;;;4.80;3.47;;;6.80;99.60;;;;;;5032685;28;20500;-46
2021/12/02 09:23:32;;;;;;;6.90;3.53;;;6.80;99.30;;;;;;5053141;28;20508;-46
2021/12/02 09:25:59;;;;;;;8.43;3.57;;;6.80;99.10;;;;;;5047600;28;20749;-46
2021/12/02 09:28:27;;;;;;;15.23;3.33;;;6.80;99.30;;;;;;5052664;28;20608;-46
2021/12/02 09:30:54;;;;;;;5.30;3.27;;;6.90;99.50;;;;;;5055996;28;21003;-46
2021/12/02 09:33:21;;;;;;;8.37;3.83;;;6.90;99.30;;;;;;5053774;28;20477;-46
2021/12/02 09:35:47;;;;;;;6.47;3.73;;;6.90;99.60;;;;;;5054881;28;20510;-46
2021/12/02 09:38:14;;;;;;;6.80;5.03;;;7.00;99.70;;;;;;5039525;28;20788;-47
2021/12/02 09:40:42;;;;;;;6.20;4.07;;;6.90;99.40;;;;;;5062368;28;20490;-46
2021/12/02 09:43:11;;;;;;;9.13;3.57;;;6.90;99.40;;;;;;5047024;28;20481;-47
2021/12/02 09:45:40;;;;;;;8.60;4.80;;;6.90;99.60;;;;;;5049582;28;21088;-46
2021/12/02 09:48:08;;;;;;;6.37;4.60;;;6.80;99.00;;;;;;5043502;28;20784;-47
2021/12/02 09:50:38;;;;;;;6.90;4.20;;;6.80;99.30;;;;;;5042796;28;20475;-46
2021/12/02 09:53:08;;;;;;;4.00;3.60;;;6.80;99.30;;;;;;5047777;28;21063;-46
2021/12/02 09:55:43;;;;;;;7.87;4.60;;;6.80;99.10;;;;;;5041402;28;20474;-46
2021/12/02 09:58:17;;;;;;;5.50;3.97;;;6.80;99.40;;;;;;5058211;28;21006;-46
2021/12/02 10:00:48;;;;;;;3.77;2.80;;;6.80;99.20;;;;;;5041211;28;20569;-46
2021/12/02 10:03:21;;;;;;;3.10;2.23;;;6.80;99.40;;;;;;5022854;28;20589;-48
2021/12/02 10:05:54;;;;;;;3.53;2.10;;;6.70;98.70;;;;;;5039124;28;20485;-47
2021/12/02 10:08:22;;;;;;;4.67;3.03;;;6.70;99.00;;;;;;5055154;28;21042;-46
2021/12/02 10:10:53;;;;;;;6.57;2.83;;;6.70;99.20;;;;;;5050632;28;20987;-46
2021/12/02 10:13:28;;;;;;;5.60;2.93;;;6.70;98.70;;;;;;5046196;28;21068;-50
2021/12/02 10:16:15;;;;;;;3.20;2.07;;;6.70;99.00;;;;;;5054011;28;20966;-47
2021/12/02 10:18:53;;;;;;;2.60;2.37;;;6.70;98.70;;;;;;5051949;28;20970;-46
2021/12/02 10:21:25;;;;;;;4.00;2.33;;;6.70;98.70;;;;;;5049027;28;21080;-46
2021/12/02 10:23:53;;;;;;;5.67;3.17;;;6.70;98.70;;;;;;5010591;28;20527;-46
2021/12/02 10:26:21;;;;;;;6.10;2.40;;;6.70;98.30;;;;;;5044364;28;20492;-47
2021/12/02 10:28:51;;;;;;;2.20;1.80;;;6.80;98.70;;;;;;5048154;28;20509;-47
2021/12/02 10:31:22;;;;;;;3.43;1.83;;;6.90;98.80;;;;;;5054081;28;20483;-46
2021/12/02 10:33:53;;;;;;;6.27;2.20;;;6.90;98.00;;;;;;5050188;28;20913;-47
2021/12/02 10:36:25;;;;;;;7.63;2.10;;;6.90;98.00;;;;;;5044129;28;20942;-46
2021/12/02 10:38:53;;;;;;;9.40;2.90;;;6.90;97.90;;;;;;5052233;28;20479;-47
2021/12/02 10:41:21;;;;;;;4.20;2.47;;;6.90;97.10;;;;;;5048289;28;20960;-46
2021/12/02 10:44:17;;;;;;;2.27;1.87;;;7.10;97.70;;;;;;5038975;28;20517;-46
2021/12/02 10:46:57;;;;;;;5.20;2.63;;;7.10;97.20;;;;;;5040445;28;20855;-47
2021/12/02 10:49:25;;;;;;;5.30;2.23;;;7.20;97.50;;;;;;5039135;28;20851;-46
2021/12/02 10:51:53;;;;;;;2.70;1.70;;;7.10;96.80;;;;;;5035212;28;20567;-46
2021/12/02 10:54:22;;;;;;;3.93;2.30;;;7.10;97.00;;;;;;5061123;28;20512;-47
2021/12/02 10:56:51;;;;;;;2.53;1.53;;;7.10;97.30;;;;;;5044865;28;20692;-46
2021/12/02 10:59:30;;;;;;;3.30;2.10;;;7.00;97.30;;;;;;5058953;28;20737;-47
2021/12/02 11:02:00;;;;;;;8.60;2.23;;;7.00;97.90;;;;;;5048605;28;20931;-46
2021/12/02 11:04:28;;;;;;;3.10;1.57;;;7.00;97.80;;;;;;5048656;28;20994;-47
2021/12/02 11:07:01;;;;;;;2.23;1.63;;;7.00;97.30;;;;;;5041753;28;20507;-46
2021/12/02 11:09:29;;;;;;;7.60;2.47;;;6.90;97.10;;;;;;5045124;28;20594;-46
2021/12/02 11:12:14;;;;;;;3.20;1.13;;;6.70;97.10;;;;;;5041151;28;20512;-47
2021/12/02 11:14:51;;;;;;;2.70;2.17;;;6.60;97.40;;;;;;5040858;28;20501;-47
2021/12/02 11:17:20;;;;;;;2.37;1.60;;;6.50;97.60;;;;;;5020228;28;21085;-47
2021/12/02 11:19:47;;;;;;;2.17;1.57;;;6.40;97.80;;;;;;5056192;28;20480;-46
2021/12/02 11:22:16;;;;;;;1.93;1.47;;;6.30;98.00;;;;;;5050901;28;20911;-47
2021/12/02 11:24:45;;;;;;;3.40;1.50;;;6.20;97.70;;;;;;5050631;28;20488;-46
2021/12/02 11:27:15;;;;;;;2.70;1.43;;;6.10;97.60;;;;;;5049157;28;20477;-46
2021/12/02 11:29:58;;;;;;;2.53;1.90;;;6.10;97.90;;;;;;5035080;28;21121;-46
2021/12/02 11:32:47;;;;;;;3.93;1.60;;;6.10;98.20;;;;;;5056200;28;20480;-46
2021/12/02 11:35:20;;;;;;;5.80;2.30;;;6.20;98.70;;;;;;5033730;28;20477;-46
2021/12/02 11:37:51;;;;;;;3.73;1.47;;;6.30;98.20;;;;;;5069295;28;20485;-46
2021/12/02 11:40:20;;;;;;;4.07;1.67;;;6.30;98.10;;;;;;5054814;28;20525;-46
2021/12/02 11:42:48;;;;;;;1.87;1.00;;;6.30;98.00;;;;;;5048144;28;20500;-46
2021/12/02 11:45:16;;;;;;;2.33;1.27;;;6.30;98.00;;;;;;5051022;28;20485;-46
2021/12/02 11:47:45;;;;;;;3.50;1.27;;;6.20;97.60;;;;;;5043076;28;20477;-46
2021/12/02 11:50:14;;;;;;;1.60;1.30;;;6.30;97.70;;;;;;5064777;28;20484;-46
2021/12/02 11:52:42;;;;;;;2.60;1.40;;;6.40;98.00;;;;;;5055904;28;20491;-46
2021/12/02 11:55:14;;;;;;;3.97;1.97;;;6.60;98.10;;;;;;5046139;28;20994;-46
2021/12/02 11:57:41;;;;;;;2.10;1.50;;;6.90;98.30;;;;;;5054169;28;20493;-46
2021/12/02 12:00:10;;;;;;;1.87;1.20;;;7.10;97.80;;;;;;5054191;28;20486;-46
2021/12/02 12:02:38;;;;;;;2.63;1.27;;;7.30;97.10;;;;;;5053304;28;20510;-46
2021/12/02 12:05:08;;;;;;;4.73;1.00;;;7.50;97.00;;;;;;5054838;28;20487;-46
2021/12/02 12:07:47;;;;;;;3.70;1.77;;;7.50;96.70;;;;;;5058244;28;20529;-46
2021/12/02 12:10:17;;;;;;;2.70;1.00;;;7.40;96.20;;;;;;5021895;28;20479;-46
2021/12/02 12:12:44;;;;;;;1.70;1.20;;;7.30;96.30;;;;;;5039025;28;20490;-46
2021/12/02 12:15:34;;;;;;;2.23;1.13;;;7.20;95.90;;;;;;5053625;28;20481;-46
2021/12/02 12:18:03;;;;;;;3.03;1.03;;;7.00;96.10;;;;;;5053786;28;20581;-46
2021/12/02 12:21:03;;;;;;;5.07;1.60;;;6.90;96.30;;;;;;5048113;28;20479;-46
2021/12/02 12:23:35;;;;;;;5.40;2.00;;;6.80;96.80;;;;;;4972485;28;21054;-46
2021/12/02 12:26:10;;;;;;;1.60;1.13;;;6.70;96.70;;;;;;5033692;28;20479;-46
2021/12/02 12:29:12;;;;;;;3.40;1.43;;;6.60;96.80;;;;;;5043625;28;20973;-47
2021/12/02 12:32:12;;;;;;;2.63;1.47;;;6.50;96.90;;;;;;5030721;28;20652;-46
2021/12/02 12:34:52;;;;;;;2.10;1.20;;;6.50;97.10;;;;;;5039314;28;20505;-46
2021/12/02 12:40:48;;;;;;;9.60;2.70;;;6.30;97.20;;;;;;4974102;28;20489;-46
2021/12/02 12:43:24;;;;;;;2.10;1.20;;;6.20;97.20;;;;;;5055367;28;20840;-46
2021/12/02 12:46:18;;;;;;;3.83;1.13;;;6.20;97.60;;;;;;5051038;28;20475;-46
2021/12/02 12:48:46;;;;;;;2.60;1.40;;;6.30;98.10;;;;;;5036219;28;20488;-46
2021/12/02 12:51:23;;;;;;;3.00;1.73;;;6.40;98.20;;;;;;5044054;28;20494;-47
2021/12/02 12:53:53;;;;;;;4.27;1.40;;;6.50;98.00;;;;;;5052540;28;20486;-46
2021/12/02 12:56:30;;;;;;;5.43;1.13;;;6.50;97.30;;;;;;5053497;28;20547;-46
2021/12/02 12:59:12;;;;;;;6.30;2.00;;;6.50;97.20;;;;;;5044369;28;20986;-46
2021/12/02 13:01:40;;;;;;;3.70;1.30;;;6.50;96.50;;;;;;5028629;28;20483;-46
2021/12/02 13:04:16;;;;;;;2.10;1.07;;;6.40;96.70;;;;;;5047799;28;20494;-47
2021/12/02 13:07:09;;;;;;;2.90;1.53;;;6.40;96.30;;;;;;5051053;28;20482;-46
2021/12/02 13:10:00;;;;;;;28.70;12.73;;;6.40;96.70;;;;;;5052665;28;20474;-45
2021/12/02 13:12:44;;;;;;;3.27;2.43;;;6.30;96.70;;;;;;5052533;28;20488;-46
2021/12/02 13:15:11;;;;;;;3.10;0.97;;;6.40;96.50;;;;;;5036279;28;20567;-48
2021/12/02 13:17:43;;;;;;;2.90;0.87;;;6.40;96.60;;;;;;5049965;28;20484;-46